Lichtenvoorde, Netherlands
Current Conditions -  °F | °C
As of 6:25 AM on Sunday 26 Oct 2014 (Local Time) from EHDL Reporting Station
Overcast Overcast  
Wind Chill: 50°   Ceiling: 3700
Heat Index: 50°   Visibility: 6mi
Dew Point: 48°   Wind: 8mph
Humidity: 94%   Direction: 200°SSW
Pressure: 30.21"   Gusts: NA
Location:  51.99°N, 6.57°E
Report Text: EHDL 260425Z AUTO 20007KT 9999 OVC037 10/09 Q1023 BLU
Loading
Personal Weather Stations






























Interactive Weather Map
Tropical Storm Tracking
New forecast layout! Learn more

10-Day Weather Forecast

Advertisements
Track Severe Weather on mobile